sensor_id;sensor_type;location;lat;lon;timestamp;P1;durP1;ratioP1;P2;durP2;ratioP2
47866;SDS011;33628;50.806;11.586;2023-07-22T00:02:25;6.32;;;3.15;;
47866;SDS011;33628;50.806;11.586;2023-07-22T00:04:51;10.45;;;2.90;;
47866;SDS011;33628;50.806;11.586;2023-07-22T00:07:19;7.05;;;3.03;;
47866;SDS011;33628;50.806;11.586;2023-07-22T00:09:46;8.07;;;3.05;;
47866;SDS011;33628;50.806;11.586;2023-07-22T00:12:15;6.93;;;3.42;;
47866;SDS011;33628;50.806;11.586;2023-07-22T00:14:42;6.38;;;3.30;;
47866;SDS011;33628;50.806;11.586;2023-07-22T00:17:09;15.05;;;3.53;;
47866;SDS011;33628;50.806;11.586;2023-07-22T00:19:36;7.35;;;2.90;;
47866;SDS011;33628;50.806;11.586;2023-07-22T00:22:02;9.85;;;3.28;;
47866;SDS011;33628;50.806;11.586;2023-07-22T00:24:31;6.78;;;2.95;;
47866;SDS011;33628;50.806;11.586;2023-07-22T00:26:57;8.52;;;3.17;;
47866;SDS011;33628;50.806;11.586;2023-07-22T00:29:24;10.18;;;3.33;;
47866;SDS011;33628;50.806;11.586;2023-07-22T00:31:50;5.75;;;3.13;;
47866;SDS011;33628;50.806;11.586;2023-07-22T00:34:17;8.65;;;3.00;;
47866;SDS011;33628;50.806;11.586;2023-07-22T00:36:43;8.40;;;3.20;;
47866;SDS011;33628;50.806;11.586;2023-07-22T00:39:10;5.13;;;3.00;;
47866;SDS011;33628;50.806;11.586;2023-07-22T00:41:41;10.13;;;3.00;;
47866;SDS011;33628;50.806;11.586;2023-07-22T00:44:11;9.02;;;3.30;;
47866;SDS011;33628;50.806;11.586;2023-07-22T00:46:38;7.07;;;3.28;;
47866;SDS011;33628;50.806;11.586;2023-07-22T00:49:05;10.85;;;3.70;;
47866;SDS011;33628;50.806;11.586;2023-07-22T00:51:32;8.85;;;3.92;;
47866;SDS011;33628;50.806;11.586;2023-07-22T00:53:59;6.03;;;3.10;;
47866;SDS011;33628;50.806;11.586;2023-07-22T00:56:25;9.85;;;3.25;;
47866;SDS011;33628;50.806;11.586;2023-07-22T00:58:53;4.70;;;3.30;;
47866;SDS011;33628;50.806;11.586;2023-07-22T01:01:21;4.95;;;2.97;;
47866;SDS011;33628;50.806;11.586;2023-07-22T01:03:48;4.85;;;3.40;;
47866;SDS011;33628;50.806;11.586;2023-07-22T01:06:14;4.25;;;3.20;;
47866;SDS011;33628;50.806;11.586;2023-07-22T01:08:43;5.20;;;2.97;;
47866;SDS011;33628;50.806;11.586;2023-07-22T01:11:10;8.57;;;3.70;;
47866;SDS011;33628;50.806;11.586;2023-07-22T01:13:38;4.85;;;2.92;;
47866;SDS011;33628;50.806;11.586;2023-07-22T01:16:06;5.72;;;3.08;;
47866;SDS011;33628;50.806;11.586;2023-07-22T01:18:33;5.45;;;3.38;;
47866;SDS011;33628;50.806;11.586;2023-07-22T01:21:00;6.93;;;3.42;;
47866;SDS011;33628;50.806;11.586;2023-07-22T01:23:29;5.72;;;3.20;;
47866;SDS011;33628;50.806;11.586;2023-07-22T01:25:55;7.30;;;3.10;;
47866;SDS011;33628;50.806;11.586;2023-07-22T01:28:22;6.05;;;3.33;;
47866;SDS011;33628;50.806;11.586;2023-07-22T01:30:49;8.23;;;3.25;;
47866;SDS011;33628;50.806;11.586;2023-07-22T01:33:15;8.30;;;3.33;;
47866;SDS011;33628;50.806;11.586;2023-07-22T01:35:42;12.18;;;3.05;;
47866;SDS011;33628;50.806;11.586;2023-07-22T01:38:09;6.28;;;3.83;;
47866;SDS011;33628;50.806;11.586;2023-07-22T01:40:37;12.63;;;3.97;;
47866;SDS011;33628;50.806;11.586;2023-07-22T01:43:04;17.70;;;3.85;;
47866;SDS011;33628;50.806;11.586;2023-07-22T01:45:30;12.23;;;3.63;;
47866;SDS011;33628;50.806;11.586;2023-07-22T01:47:58;9.27;;;3.38;;
47866;SDS011;33628;50.806;11.586;2023-07-22T01:50:24;12.32;;;3.95;;
47866;SDS011;33628;50.806;11.586;2023-07-22T01:52:51;9.52;;;3.30;;
47866;SDS011;33628;50.806;11.586;2023-07-22T01:55:18;9.48;;;3.63;;
47866;SDS011;33628;50.806;11.586;2023-07-22T01:57:46;9.48;;;3.70;;
47866;SDS011;33628;50.806;11.586;2023-07-22T02:00:13;13.65;;;4.00;;
47866;SDS011;33628;50.806;11.586;2023-07-22T02:02:41;13.02;;;3.58;;
47866;SDS011;33628;50.806;11.586;2023-07-22T02:05:07;9.90;;;3.45;;
47866;SDS011;33628;50.806;11.586;2023-07-22T02:07:36;10.60;;;3.50;;
47866;SDS011;33628;50.806;11.586;2023-07-22T02:10:03;12.70;;;4.40;;
47866;SDS011;33628;50.806;11.586;2023-07-22T02:12:31;10.50;;;3.90;;
47866;SDS011;33628;50.806;11.586;2023-07-22T02:14:59;12.48;;;3.90;;
47866;SDS011;33628;50.806;11.586;2023-07-22T02:17:25;12.30;;;3.88;;
47866;SDS011;33628;50.806;11.586;2023-07-22T02:19:52;14.80;;;4.53;;
47866;SDS011;33628;50.806;11.586;2023-07-22T02:22:19;10.13;;;4.03;;
47866;SDS011;33628;50.806;11.586;2023-07-22T02:24:46;7.45;;;3.22;;
47866;SDS011;33628;50.806;11.586;2023-07-22T02:27:12;7.60;;;4.10;;
47866;SDS011;33628;50.806;11.586;2023-07-22T02:29:40;9.05;;;3.15;;
47866;SDS011;33628;50.806;11.586;2023-07-22T02:32:08;11.15;;;3.78;;
47866;SDS011;33628;50.806;11.586;2023-07-22T02:34:35;8.52;;;4.05;;
47866;SDS011;33628;50.806;11.586;2023-07-22T02:37:03;13.80;;;4.55;;
47866;SDS011;33628;50.806;11.586;2023-07-22T02:39:30;12.88;;;4.20;;
47866;SDS011;33628;50.806;11.586;2023-07-22T02:41:57;11.40;;;3.80;;
47866;SDS011;33628;50.806;11.586;2023-07-22T02:44:24;6.88;;;3.83;;
47866;SDS011;33628;50.806;11.586;2023-07-22T02:46:50;7.72;;;3.40;;
47866;SDS011;33628;50.806;11.586;2023-07-22T02:49:18;5.65;;;3.47;;
47866;SDS011;33628;50.806;11.586;2023-07-22T02:51:45;6.07;;;3.60;;
47866;SDS011;33628;50.806;11.586;2023-07-22T02:54:12;7.60;;;3.22;;
47866;SDS011;33628;50.806;11.586;2023-07-22T02:56:39;5.90;;;3.28;;
47866;SDS011;33628;50.806;11.586;2023-07-22T02:59:07;5.97;;;3.53;;
47866;SDS011;33628;50.806;11.586;2023-07-22T03:01:34;7.22;;;3.33;;
47866;SDS011;33628;50.806;11.586;2023-07-22T03:04:01;9.93;;;3.70;;
47866;SDS011;33628;50.806;11.586;2023-07-22T03:06:29;8.20;;;4.00;;
47866;SDS011;33628;50.806;11.586;2023-07-22T03:08:57;5.07;;;3.35;;
47866;SDS011;33628;50.806;11.586;2023-07-22T03:11:23;6.65;;;3.17;;
47866;SDS011;33628;50.806;11.586;2023-07-22T03:13:51;11.85;;;3.38;;
47866;SDS011;33628;50.806;11.586;2023-07-22T03:16:17;5.60;;;3.97;;
47866;SDS011;33628;50.806;11.586;2023-07-22T03:18:44;12.93;;;3.85;;
47866;SDS011;33628;50.806;11.586;2023-07-22T03:21:11;10.80;;;3.67;;
47866;SDS011;33628;50.806;11.586;2023-07-22T03:23:39;6.45;;;3.78;;
47866;SDS011;33628;50.806;11.586;2023-07-22T03:26:05;6.90;;;3.50;;
47866;SDS011;33628;50.806;11.586;2023-07-22T03:28:32;7.43;;;3.42;;
47866;SDS011;33628;50.806;11.586;2023-07-22T03:30:59;13.20;;;4.40;;
47866;SDS011;33628;50.806;11.586;2023-07-22T03:33:25;13.32;;;3.75;;
47866;SDS011;33628;50.806;11.586;2023-07-22T03:35:52;11.35;;;3.92;;
47866;SDS011;33628;50.806;11.586;2023-07-22T03:38:19;13.57;;;4.22;;
47866;SDS011;33628;50.806;11.586;2023-07-22T03:40:47;7.70;;;3.85;;
47866;SDS011;33628;50.806;11.586;2023-07-22T03:43:13;7.72;;;3.55;;
47866;SDS011;33628;50.806;11.586;2023-07-22T03:45:40;10.32;;;3.38;;
47866;SDS011;33628;50.806;11.586;2023-07-22T03:48:07;10.00;;;3.60;;
47866;SDS011;33628;50.806;11.586;2023-07-22T03:50:34;9.38;;;5.07;;
47866;SDS011;33628;50.806;11.586;2023-07-22T03:53:01;12.85;;;4.10;;
47866;SDS011;33628;50.806;11.586;2023-07-22T03:55:28;10.15;;;3.88;;
47866;SDS011;33628;50.806;11.586;2023-07-22T03:57:56;10.38;;;3.75;;
47866;SDS011;33628;50.806;11.586;2023-07-22T04:00:23;10.75;;;3.70;;
47866;SDS011;33628;50.806;11.586;2023-07-22T04:02:49;9.10;;;3.70;;
47866;SDS011;33628;50.806;11.586;2023-07-22T04:05:16;7.53;;;3.75;;
47866;SDS011;33628;50.806;11.586;2023-07-22T04:07:44;11.35;;;3.75;;
47866;SDS011;33628;50.806;11.586;2023-07-22T04:10:11;9.98;;;4.30;;
47866;SDS011;33628;50.806;11.586;2023-07-22T04:12:37;7.78;;;4.05;;
47866;SDS011;33628;50.806;11.586;2023-07-22T04:15:06;11.82;;;4.00;;
47866;SDS011;33628;50.806;11.586;2023-07-22T04:17:33;14.18;;;3.88;;
47866;SDS011;33628;50.806;11.586;2023-07-22T04:19:59;13.98;;;3.95;;
47866;SDS011;33628;50.806;11.586;2023-07-22T04:22:26;14.70;;;3.75;;
47866;SDS011;33628;50.806;11.586;2023-07-22T04:24:53;8.57;;;3.88;;
47866;SDS011;33628;50.806;11.586;2023-07-22T04:27:20;15.13;;;4.00;;
47866;SDS011;33628;50.806;11.586;2023-07-22T04:29:46;10.25;;;3.60;;
47866;SDS011;33628;50.806;11.586;2023-07-22T04:32:14;9.77;;;3.90;;
47866;SDS011;33628;50.806;11.586;2023-07-22T04:34:41;13.95;;;4.50;;
47866;SDS011;33628;50.806;11.586;2023-07-22T04:37:08;9.60;;;4.00;;
47866;SDS011;33628;50.806;11.586;2023-07-22T04:39:34;12.25;;;3.95;;
47866;SDS011;33628;50.806;11.586;2023-07-22T04:42:03;10.45;;;3.97;;
47866;SDS011;33628;50.806;11.586;2023-07-22T04:44:30;12.35;;;4.63;;
47866;SDS011;33628;50.806;11.586;2023-07-22T04:46:56;9.40;;;4.30;;
47866;SDS011;33628;50.806;11.586;2023-07-22T04:49:24;9.93;;;4.05;;
47866;SDS011;33628;50.806;11.586;2023-07-22T04:51:51;7.40;;;4.05;;
47866;SDS011;33628;50.806;11.586;2023-07-22T04:54:18;9.82;;;3.92;;
47866;SDS011;33628;50.806;11.586;2023-07-22T04:56:44;6.95;;;4.03;;
47866;SDS011;33628;50.806;11.586;2023-07-22T04:59:11;8.00;;;3.90;;
47866;SDS011;33628;50.806;11.586;2023-07-22T05:01:39;6.03;;;3.97;;
47866;SDS011;33628;50.806;11.586;2023-07-22T05:04:06;8.43;;;3.80;;
47866;SDS011;33628;50.806;11.586;2023-07-22T05:06:34;5.88;;;3.60;;
47866;SDS011;33628;50.806;11.586;2023-07-22T05:09:01;7.75;;;3.55;;
47866;SDS011;33628;50.806;11.586;2023-07-22T05:11:29;11.07;;;4.25;;
47866;SDS011;33628;50.806;11.586;2023-07-22T05:13:56;8.15;;;4.20;;
47866;SDS011;33628;50.806;11.586;2023-07-22T05:16:22;9.52;;;3.97;;
47866;SDS011;33628;50.806;11.586;2023-07-22T05:18:49;7.43;;;4.20;;
47866;SDS011;33628;50.806;11.586;2023-07-22T05:21:15;9.30;;;4.45;;
47866;SDS011;33628;50.806;11.586;2023-07-22T05:23:43;6.53;;;4.00;;
47866;SDS011;33628;50.806;11.586;2023-07-22T05:26:10;10.32;;;4.68;;
47866;SDS011;33628;50.806;11.586;2023-07-22T05:28:37;9.60;;;4.10;;
47866;SDS011;33628;50.806;11.586;2023-07-22T05:31:03;9.02;;;4.65;;
47866;SDS011;33628;50.806;11.586;2023-07-22T05:33:30;6.68;;;4.30;;
47866;SDS011;33628;50.806;11.586;2023-07-22T05:35:57;10.05;;;4.00;;
47866;SDS011;33628;50.806;11.586;2023-07-22T05:38:23;6.50;;;4.10;;
47866;SDS011;33628;50.806;11.586;2023-07-22T05:40:52;7.72;;;3.60;;
47866;SDS011;33628;50.806;11.586;2023-07-22T05:43:19;4.70;;;3.75;;
47866;SDS011;33628;50.806;11.586;2023-07-22T05:45:46;9.93;;;4.07;;
47866;SDS011;33628;50.806;11.586;2023-07-22T05:48:12;7.25;;;3.88;;
47866;SDS011;33628;50.806;11.586;2023-07-22T05:50:39;11.40;;;4.75;;
47866;SDS011;33628;50.806;11.586;2023-07-22T05:53:05;7.03;;;3.70;;
47866;SDS011;33628;50.806;11.586;2023-07-22T05:55:32;7.80;;;4.22;;
47866;SDS011;33628;50.806;11.586;2023-07-22T05:58:01;10.40;;;4.47;;
47866;SDS011;33628;50.806;11.586;2023-07-22T06:00:31;5.25;;;4.05;;
47866;SDS011;33628;50.806;11.586;2023-07-22T06:02:58;6.80;;;4.22;;
47866;SDS011;33628;50.806;11.586;2023-07-22T06:05:25;6.55;;;4.20;;
47866;SDS011;33628;50.806;11.586;2023-07-22T06:07:51;6.13;;;4.05;;
47866;SDS011;33628;50.806;11.586;2023-07-22T06:10:20;8.05;;;5.28;;
47866;SDS011;33628;50.806;11.586;2023-07-22T06:12:47;5.78;;;4.32;;
47866;SDS011;33628;50.806;11.586;2023-07-22T06:15:15;8.20;;;4.72;;
47866;SDS011;33628;50.806;11.586;2023-07-22T06:17:42;5.15;;;4.47;;
47866;SDS011;33628;50.806;11.586;2023-07-22T06:20:09;6.85;;;4.53;;
47866;SDS011;33628;50.806;11.586;2023-07-22T06:22:36;4.97;;;4.30;;
47866;SDS011;33628;50.806;11.586;2023-07-22T06:25:03;5.35;;;4.15;;
47866;SDS011;33628;50.806;11.586;2023-07-22T06:27:30;7.15;;;4.10;;
47866;SDS011;33628;50.806;11.586;2023-07-22T06:29:57;8.82;;;4.63;;
47866;SDS011;33628;50.806;11.586;2023-07-22T06:32:25;6.25;;;4.30;;
47866;SDS011;33628;50.806;11.586;2023-07-22T06:34:52;6.65;;;4.80;;
47866;SDS011;33628;50.806;11.586;2023-07-22T06:37:18;5.85;;;4.85;;
47866;SDS011;33628;50.806;11.586;2023-07-22T06:39:45;5.82;;;4.47;;
47866;SDS011;33628;50.806;11.586;2023-07-22T06:42:12;7.43;;;4.88;;
47866;SDS011;33628;50.806;11.586;2023-07-22T06:44:39;10.55;;;6.20;;
47866;SDS011;33628;50.806;11.586;2023-07-22T06:47:05;8.35;;;5.25;;
47866;SDS011;33628;50.806;11.586;2023-07-22T06:49:34;7.63;;;5.43;;
47866;SDS011;33628;50.806;11.586;2023-07-22T06:52:01;7.25;;;5.60;;
47866;SDS011;33628;50.806;11.586;2023-07-22T06:54:28;7.07;;;5.35;;
47866;SDS011;33628;50.806;11.586;2023-07-22T06:56:56;7.50;;;5.55;;
47866;SDS011;33628;50.806;11.586;2023-07-22T06:59:22;8.98;;;5.90;;
47866;SDS011;33628;50.806;11.586;2023-07-22T07:01:49;6.88;;;5.40;;
47866;SDS011;33628;50.806;11.586;2023-07-22T07:04:16;7.95;;;5.35;;
47866;SDS011;33628;50.806;11.586;2023-07-22T07:06:44;7.07;;;5.82;;
47866;SDS011;33628;50.806;11.586;2023-07-22T07:09:14;8.70;;;5.75;;
47866;SDS011;33628;50.806;11.586;2023-07-22T07:11:41;5.65;;;4.95;;
47866;SDS011;33628;50.806;11.586;2023-07-22T07:14:07;6.70;;;5.30;;
47866;SDS011;33628;50.806;11.586;2023-07-22T07:19:10;8.00;;;5.10;;
47866;SDS011;33628;50.806;11.586;2023-07-22T07:24:15;6.40;;;4.97;;
47866;SDS011;33628;50.806;11.586;2023-07-22T07:26:44;6.05;;;4.63;;
47866;SDS011;33628;50.806;11.586;2023-07-22T07:29:12;6.20;;;4.70;;
47866;SDS011;33628;50.806;11.586;2023-07-22T07:31:38;6.72;;;4.88;;
47866;SDS011;33628;50.806;11.586;2023-07-22T07:34:05;6.00;;;4.65;;
47866;SDS011;33628;50.806;11.586;2023-07-22T07:36:32;6.30;;;4.60;;
47866;SDS011;33628;50.806;11.586;2023-07-22T07:38:59;6.70;;;5.30;;
47866;SDS011;33628;50.806;11.586;2023-07-22T07:41:27;9.45;;;4.85;;
47866;SDS011;33628;50.806;11.586;2023-07-22T07:43:57;6.65;;;4.68;;
47866;SDS011;33628;50.806;11.586;2023-07-22T07:46:24;7.35;;;4.55;;
47866;SDS011;33628;50.806;11.586;2023-07-22T07:48:54;8.55;;;4.65;;
47866;SDS011;33628;50.806;11.586;2023-07-22T07:51:22;8.43;;;4.82;;
47866;SDS011;33628;50.806;11.586;2023-07-22T07:53:50;7.10;;;4.60;;
47866;SDS011;33628;50.806;11.586;2023-07-22T07:56:17;8.30;;;5.07;;
47866;SDS011;33628;50.806;11.586;2023-07-22T07:58:47;7.40;;;4.53;;
47866;SDS011;33628;50.806;11.586;2023-07-22T08:01:14;5.50;;;4.18;;
47866;SDS011;33628;50.806;11.586;2023-07-22T08:03:43;6.90;;;4.72;;
47866;SDS011;33628;50.806;11.586;2023-07-22T08:06:10;8.07;;;4.57;;
47866;SDS011;33628;50.806;11.586;2023-07-22T08:08:37;5.88;;;4.43;;
47866;SDS011;33628;50.806;11.586;2023-07-22T08:11:05;5.57;;;4.55;;
47866;SDS011;33628;50.806;11.586;2023-07-22T08:13:37;5.15;;;3.80;;
47866;SDS011;33628;50.806;11.586;2023-07-22T08:16:05;6.65;;;4.00;;
47866;SDS011;33628;50.806;11.586;2023-07-22T08:18:33;6.00;;;4.00;;
47866;SDS011;33628;50.806;11.586;2023-07-22T08:21:01;4.25;;;3.85;;
47866;SDS011;33628;50.806;11.586;2023-07-22T08:23:29;4.30;;;3.33;;
47866;SDS011;33628;50.806;11.586;2023-07-22T08:25:56;4.75;;;3.97;;
47866;SDS011;33628;50.806;11.586;2023-07-22T08:28:24;3.95;;;3.28;;
47866;SDS011;33628;50.806;11.586;2023-07-22T08:30:53;5.40;;;3.60;;
47866;SDS011;33628;50.806;11.586;2023-07-22T08:33:22;5.15;;;3.50;;
47866;SDS011;33628;50.806;11.586;2023-07-22T08:35:50;5.40;;;3.40;;
47866;SDS011;33628;50.806;11.586;2023-07-22T08:38:17;6.05;;;3.60;;
47866;SDS011;33628;50.806;11.586;2023-07-22T08:40:44;4.63;;;3.10;;
47866;SDS011;33628;50.806;11.586;2023-07-22T08:43:13;4.22;;;3.40;;
47866;SDS011;33628;50.806;11.586;2023-07-22T08:45:41;5.60;;;3.80;;
47866;SDS011;33628;50.806;11.586;2023-07-22T08:48:08;5.60;;;3.50;;
47866;SDS011;33628;50.806;11.586;2023-07-22T08:50:41;4.75;;;3.50;;
47866;SDS011;33628;50.806;11.586;2023-07-22T08:53:08;5.43;;;3.55;;
47866;SDS011;33628;50.806;11.586;2023-07-22T08:55:36;5.43;;;3.72;;
47866;SDS011;33628;50.806;11.586;2023-07-22T08:58:05;4.28;;;3.40;;
47866;SDS011;33628;50.806;11.586;2023-07-22T09:00:35;4.43;;;3.30;;
47866;SDS011;33628;50.806;11.586;2023-07-22T09:03:02;4.70;;;2.90;;
47866;SDS011;33628;50.806;11.586;2023-07-22T09:05:28;4.78;;;3.15;;
47866;SDS011;33628;50.806;11.586;2023-07-22T09:07:56;4.03;;;3.08;;
47866;SDS011;33628;50.806;11.586;2023-07-22T09:10:24;4.93;;;3.75;;
47866;SDS011;33628;50.806;11.586;2023-07-22T09:12:53;4.93;;;3.30;;
47866;SDS011;33628;50.806;11.586;2023-07-22T09:15:20;5.05;;;3.22;;
47866;SDS011;33628;50.806;11.586;2023-07-22T09:17:49;4.85;;;3.17;;
47866;SDS011;33628;50.806;11.586;2023-07-22T09:20:16;6.15;;;3.65;;
47866;SDS011;33628;50.806;11.586;2023-07-22T09:22:43;4.05;;;3.60;;
47866;SDS011;33628;50.806;11.586;2023-07-22T09:25:17;4.35;;;3.47;;
47866;SDS011;33628;50.806;11.586;2023-07-22T09:27:45;4.28;;;3.35;;
47866;SDS011;33628;50.806;11.586;2023-07-22T09:30:24;4.28;;;3.30;;
47866;SDS011;33628;50.806;11.586;2023-07-22T09:32:52;3.78;;;3.03;;
47866;SDS011;33628;50.806;11.586;2023-07-22T09:35:20;3.33;;;2.85;;
47866;SDS011;33628;50.806;11.586;2023-07-22T09:37:48;10.02;;;3.60;;
47866;SDS011;33628;50.806;11.586;2023-07-22T09:40:16;4.63;;;2.78;;
47866;SDS011;33628;50.806;11.586;2023-07-22T09:42:45;5.18;;;2.88;;
47866;SDS011;33628;50.806;11.586;2023-07-22T09:45:12;4.55;;;2.97;;
47866;SDS011;33628;50.806;11.586;2023-07-22T09:47:39;4.93;;;3.35;;
47866;SDS011;33628;50.806;11.586;2023-07-22T09:50:08;4.78;;;3.30;;
47866;SDS011;33628;50.806;11.586;2023-07-22T09:52:40;4.75;;;3.83;;
47866;SDS011;33628;50.806;11.586;2023-07-22T09:55:11;5.18;;;3.25;;
47866;SDS011;33628;50.806;11.586;2023-07-22T09:57:40;3.95;;;3.28;;
47866;SDS011;33628;50.806;11.586;2023-07-22T10:00:11;3.83;;;2.80;;
47866;SDS011;33628;50.806;11.586;2023-07-22T10:02:40;3.90;;;3.08;;
47866;SDS011;33628;50.806;11.586;2023-07-22T10:05:12;6.72;;;3.55;;
47866;SDS011;33628;50.806;11.586;2023-07-22T10:07:42;3.35;;;3.03;;
47866;SDS011;33628;50.806;11.586;2023-07-22T10:10:11;4.13;;;3.70;;
47866;SDS011;33628;50.806;11.586;2023-07-22T10:12:40;4.35;;;3.70;;
47866;SDS011;33628;50.806;11.586;2023-07-22T10:15:09;6.97;;;3.28;;
47866;SDS011;33628;50.806;11.586;2023-07-22T10:17:38;4.43;;;3.28;;
47866;SDS011;33628;50.806;11.586;2023-07-22T10:20:07;3.85;;;3.22;;
47866;SDS011;33628;50.806;11.586;2023-07-22T10:22:36;5.35;;;3.97;;
47866;SDS011;33628;50.806;11.586;2023-07-22T10:25:06;4.20;;;3.80;;
47866;SDS011;33628;50.806;11.586;2023-07-22T10:27:36;5.60;;;3.30;;
47866;SDS011;33628;50.806;11.586;2023-07-22T10:30:07;5.45;;;3.75;;
47866;SDS011;33628;50.806;11.586;2023-07-22T10:32:38;5.85;;;3.58;;
47866;SDS011;33628;50.806;11.586;2023-07-22T10:35:10;4.00;;;3.47;;
47866;SDS011;33628;50.806;11.586;2023-07-22T10:37:38;6.43;;;4.28;;
47866;SDS011;33628;50.806;11.586;2023-07-22T10:40:17;11.98;;;9.35;;
47866;SDS011;33628;50.806;11.586;2023-07-22T10:42:51;5.57;;;4.18;;
47866;SDS011;33628;50.806;11.586;2023-07-22T10:45:28;6.03;;;3.53;;
47866;SDS011;33628;50.806;11.586;2023-07-22T10:48:03;5.22;;;3.22;;
47866;SDS011;33628;50.806;11.586;2023-07-22T10:50:40;5.68;;;3.20;;
47866;SDS011;33628;50.806;11.586;2023-07-22T10:53:09;6.03;;;3.25;;
47866;SDS011;33628;50.806;11.586;2023-07-22T10:58:54;3.65;;;3.10;;
47866;SDS011;33628;50.806;11.586;2023-07-22T11:01:31;3.78;;;3.15;;
47866;SDS011;33628;50.806;11.586;2023-07-22T11:04:02;6.97;;;3.30;;
47866;SDS011;33628;50.806;11.586;2023-07-22T11:06:37;3.03;;;2.70;;
47866;SDS011;33628;50.806;11.586;2023-07-22T11:09:05;4.57;;;3.60;;
47866;SDS011;33628;50.806;11.586;2023-07-22T11:11:36;5.32;;;2.92;;
47866;SDS011;33628;50.806;11.586;2023-07-22T11:14:13;4.88;;;3.30;;
47866;SDS011;33628;50.806;11.586;2023-07-22T11:16:46;3.83;;;3.35;;
47866;SDS011;33628;50.806;11.586;2023-07-22T11:19:13;7.55;;;3.83;;
47866;SDS011;33628;50.806;11.586;2023-07-22T11:21:40;4.20;;;3.28;;
47866;SDS011;33628;50.806;11.586;2023-07-22T11:24:07;4.72;;;3.28;;
47866;SDS011;33628;50.806;11.586;2023-07-22T11:26:34;5.53;;;3.40;;
47866;SDS011;33628;50.806;11.586;2023-07-22T11:29:01;3.72;;;2.80;;
47866;SDS011;33628;50.806;11.586;2023-07-22T11:31:31;3.90;;;3.40;;
47866;SDS011;33628;50.806;11.586;2023-07-22T11:34:00;3.10;;;2.80;;
47866;SDS011;33628;50.806;11.586;2023-07-22T11:36:26;4.03;;;3.03;;
47866;SDS011;33628;50.806;11.586;2023-07-22T11:38:53;3.70;;;3.00;;
47866;SDS011;33628;50.806;11.586;2023-07-22T11:41:22;3.20;;;2.90;;
47866;SDS011;33628;50.806;11.586;2023-07-22T11:43:50;5.35;;;3.33;;
47866;SDS011;33628;50.806;11.586;2023-07-22T11:46:17;4.50;;;3.08;;
47866;SDS011;33628;50.806;11.586;2023-07-22T11:48:50;3.03;;;2.70;;
47866;SDS011;33628;50.806;11.586;2023-07-22T11:51:19;3.80;;;3.30;;
47866;SDS011;33628;50.806;11.586;2023-07-22T11:53:46;4.43;;;3.08;;
47866;SDS011;33628;50.806;11.586;2023-07-22T11:56:17;3.95;;;3.30;;
47866;SDS011;33628;50.806;11.586;2023-07-22T11:58:48;3.35;;;3.03;;
47866;SDS011;33628;50.806;11.586;2023-07-22T12:01:15;4.45;;;3.00;;
47866;SDS011;33628;50.806;11.586;2023-07-22T12:03:42;4.20;;;3.63;;
47866;SDS011;33628;50.806;11.586;2023-07-22T12:06:09;4.82;;;3.42;;
47866;SDS011;33628;50.806;11.586;2023-07-22T12:08:37;5.53;;;3.47;;
47866;SDS011;33628;50.806;11.586;2023-07-22T12:11:15;4.22;;;3.40;;
47866;SDS011;33628;50.806;11.586;2023-07-22T12:13:43;3.53;;;2.90;;
47866;SDS011;33628;50.806;11.586;2023-07-22T12:16:12;4.28;;;2.90;;
47866;SDS011;33628;50.806;11.586;2023-07-22T12:18:43;6.75;;;3.88;;
47866;SDS011;33628;50.806;11.586;2023-07-22T12:21:10;3.22;;;2.92;;
47866;SDS011;33628;50.806;11.586;2023-07-22T12:23:38;3.92;;;3.50;;
47866;SDS011;33628;50.806;11.586;2023-07-22T12:26:05;4.93;;;3.47;;
47866;SDS011;33628;50.806;11.586;2023-07-22T12:28:33;3.65;;;2.90;;
47866;SDS011;33628;50.806;11.586;2023-07-22T12:31:00;7.25;;;3.45;;
47866;SDS011;33628;50.806;11.586;2023-07-22T12:33:27;4.32;;;3.25;;
47866;SDS011;33628;50.806;11.586;2023-07-22T12:35:54;4.28;;;3.25;;
47866;SDS011;33628;50.806;11.586;2023-07-22T12:38:21;5.72;;;3.33;;
47866;SDS011;33628;50.806;11.586;2023-07-22T12:40:49;4.13;;;3.40;;
47866;SDS011;33628;50.806;11.586;2023-07-22T12:43:16;5.65;;;3.60;;
47866;SDS011;33628;50.806;11.586;2023-07-22T12:45:42;6.95;;;3.45;;
47866;SDS011;33628;50.806;11.586;2023-07-22T12:48:09;5.20;;;3.42;;
47866;SDS011;33628;50.806;11.586;2023-07-22T12:50:36;4.75;;;3.53;;
47866;SDS011;33628;50.806;11.586;2023-07-22T12:53:04;4.18;;;3.28;;
47866;SDS011;33628;50.806;11.586;2023-07-22T12:55:32;4.90;;;3.10;;
47866;SDS011;33628;50.806;11.586;2023-07-22T12:58:00;4.45;;;3.53;;
47866;SDS011;33628;50.806;11.586;2023-07-22T13:00:27;5.63;;;4.00;;
47866;SDS011;33628;50.806;11.586;2023-07-22T13:02:54;6.68;;;4.03;;
47866;SDS011;33628;50.806;11.586;2023-07-22T13:05:22;5.97;;;3.20;;
47866;SDS011;33628;50.806;11.586;2023-07-22T13:07:49;3.55;;;2.95;;
47866;SDS011;33628;50.806;11.586;2023-07-22T13:10:16;3.85;;;3.45;;
47866;SDS011;33628;50.806;11.586;2023-07-22T13:12:45;4.25;;;3.28;;
47866;SDS011;33628;50.806;11.586;2023-07-22T13:15:13;6.40;;;3.83;;
47866;SDS011;33628;50.806;11.586;2023-07-22T13:17:40;4.28;;;3.33;;
47866;SDS011;33628;50.806;11.586;2023-07-22T13:20:08;5.90;;;3.10;;
47866;SDS011;33628;50.806;11.586;2023-07-22T13:22:37;4.43;;;3.50;;
47866;SDS011;33628;50.806;11.586;2023-07-22T13:25:04;4.50;;;3.42;;
47866;SDS011;33628;50.806;11.586;2023-07-22T13:27:31;4.78;;;3.35;;
47866;SDS011;33628;50.806;11.586;2023-07-22T13:29:58;5.57;;;3.63;;
47866;SDS011;33628;50.806;11.586;2023-07-22T13:32:27;4.75;;;3.20;;
47866;SDS011;33628;50.806;11.586;2023-07-22T13:34:54;6.13;;;3.47;;
47866;SDS011;33628;50.806;11.586;2023-07-22T13:37:21;6.00;;;3.25;;
47866;SDS011;33628;50.806;11.586;2023-07-22T13:39:47;4.53;;;3.47;;
47866;SDS011;33628;50.806;11.586;2023-07-22T13:42:14;4.70;;;3.20;;
47866;SDS011;33628;50.806;11.586;2023-07-22T13:44:41;4.28;;;3.45;;
47866;SDS011;33628;50.806;11.586;2023-07-22T13:47:07;4.97;;;3.22;;
47866;SDS011;33628;50.806;11.586;2023-07-22T13:49:35;5.20;;;3.30;;
47866;SDS011;33628;50.806;11.586;2023-07-22T13:52:02;4.78;;;2.80;;
47866;SDS011;33628;50.806;11.586;2023-07-22T13:54:29;3.90;;;3.50;;
47866;SDS011;33628;50.806;11.586;2023-07-22T13:56:56;5.82;;;3.63;;
47866;SDS011;33628;50.806;11.586;2023-07-22T13:59:22;5.82;;;4.10;;
47866;SDS011;33628;50.806;11.586;2023-07-22T14:01:49;6.35;;;3.17;;
47866;SDS011;33628;50.806;11.586;2023-07-22T14:04:16;4.57;;;3.10;;
47866;SDS011;33628;50.806;11.586;2023-07-22T14:06:44;5.38;;;3.60;;
47866;SDS011;33628;50.806;11.586;2023-07-22T14:09:10;4.80;;;3.30;;
47866;SDS011;33628;50.806;11.586;2023-07-22T14:11:37;6.35;;;3.10;;
47866;SDS011;33628;50.806;11.586;2023-07-22T14:14:04;4.30;;;3.10;;
47866;SDS011;33628;50.806;11.586;2023-07-22T14:16:30;4.97;;;3.05;;
47866;SDS011;33628;50.806;11.586;2023-07-22T14:18:57;7.13;;;3.60;;
47866;SDS011;33628;50.806;11.586;2023-07-22T14:21:24;4.78;;;3.33;;
47866;SDS011;33628;50.806;11.586;2023-07-22T14:23:52;5.03;;;3.20;;
47866;SDS011;33628;50.806;11.586;2023-07-22T14:26:19;3.67;;;2.83;;
47866;SDS011;33628;50.806;11.586;2023-07-22T14:28:46;7.03;;;3.33;;
47866;SDS011;33628;50.806;11.586;2023-07-22T14:31:12;3.95;;;3.25;;
47866;SDS011;33628;50.806;11.586;2023-07-22T14:33:39;7.82;;;3.13;;
47866;SDS011;33628;50.806;11.586;2023-07-22T14:36:06;3.83;;;2.90;;
47866;SDS011;33628;50.806;11.586;2023-07-22T14:38:32;4.53;;;3.28;;
47866;SDS011;33628;50.806;11.586;2023-07-22T14:41:00;4.93;;;3.38;;
47866;SDS011;33628;50.806;11.586;2023-07-22T14:43:29;5.72;;;3.47;;
47866;SDS011;33628;50.806;11.586;2023-07-22T14:45:55;5.70;;;3.58;;